Weather observations for the past three days for
Jasper Walker County Airport & Bevill Field
Imperial (Metric)
Date Time (cdt) Wind (mph) Vis. (mi.) Weather Sky Cond. Temperature (ºF) Relative Humidity Wind Chill (°F) Heat Index (°F) Pressure Precipitation (in)
Air Dwpt 6 hour altimeter (in) sea level (mb) 1 hr 3 hr 6 hr
Max. Min.
04 20:35 Calm 10.00 Fair CLR 59 53.6 82% 29.92 0.0
04 20:15 Calm 10.00 Fair CLR 60.8 55.4 83% 29.92 0.0
04 19:55 Calm 10.00 Fair CLR 62.6 55.4 77% 29.92 0.0
04 19:35 Calm 10.00 Fair CLR 66.2 55.4 68% 29.91 0.0
04 19:15 Calm 10.00 Fair CLR 73.4 51.8 47% 29.91 0.0
04 18:55 Vrbl 3 10.00 Fair CLR 75.2 50 41% 78 29.91 0.0
04 18:35 Vrbl 5 10.00 Fair CLR 77 50 39% 78 29.91 0.0
04 18:15 Vrbl 3 10.00 Fair CLR 77 50 39% 78 29.91 0.0
04 17:55 Vrbl 6 10.00 Fair CLR 77 50 39% 78 29.92 0.0
04 17:35 SE 8 G 15 10.00 Fair CLR 78.8 50 37% 79 29.92 0.0
04 17:15 Vrbl 5 G 12 10.00 A Few Clouds FEW070 78.8 50 37% 79 29.93 0.0
04 16:55 Vrbl 5 G 14 10.00 Fair CLR 78.8 50 37% 79 29.93 0.0
04 16:35 Vrbl 5 10.00 A Few Clouds FEW065 78.8 50 37% 79 29.93 0.0
04 16:15 Vrbl 7 10.00 Fair CLR 78.8 50 37% 79 29.93 0.0
04 15:55 Vrbl 6 G 13 10.00 Fair CLR 78.8 48.2 34% 79 29.95 0.0
04 15:35 Vrbl 3 10.00 Fair CLR 78.8 50 37% 79 29.95 0.0
04 15:15 Vrbl 7 G 14 10.00 A Few Clouds FEW065 80.6 51.8 37% 80 29.95 0.0
04 14:55 Vrbl 3 10.00 Fair CLR 78.8 50 37% 79 29.96 0.0
04 14:35 Vrbl 6 10.00 Fair CLR 78.8 51.8 39% 79 29.97 0.0
04 14:15 Vrbl 5 10.00 Fair CLR 77 50 39% 78 29.97 0.0
04 13:55 Calm 10.00 Fair CLR 77 51.8 42% 78 29.98 0.0
04 13:35 Vrbl 6 10.00 Fair CLR 77 51.8 42% 78 29.98 0.0
04 13:15 Vrbl 3 10.00 Fair CLR 75.2 51.8 44% 78 30 0.0
04 12:55 Vrbl 6 10.00 Fair CLR 75.2 51.8 44% 78 30.01 0.0
04 12:35 W 8 10.00 Fair CLR 75.2 53.6 47% 78 30.01 0.0
04 12:15 Calm 10.00 Fair CLR 75.2 51.8 44% 78 30.02 0.0
04 11:55 S 8 10.00 Fair CLR 75.2 51.8 44% 78 30.02 0.0
04 11:35 Vrbl 7 G 14 10.00 Fair CLR 75.2 51.8 44% 78 30.03 0.0
04 11:15 Vrbl 5 G 14 10.00 Fair CLR 73.4 51.8 47% 30.04 0.0
04 10:55 Calm 10.00 Fair CLR 73.4 53.6 50% 30.05 0.0
04 10:35 Vrbl 5 10.00 Fair CLR 69.8 51.8 53% 30.05 0.0
04 10:15 Calm 10.00 Fair CLR 69.8 51.8 53% 30.05 0.0
04 09:55 Calm 10.00 Fair CLR 66.2 50 56% 30.05 0.0
04 09:35 Vrbl 3 10.00 Fair CLR 66.2 50 56% 30.06 0.0
04 09:15 Calm 10.00 Fair CLR 62.6 50 64% 30.06 0.0
04 08:55 Calm 10.00 Fair CLR 60.8 50 68% 30.07 0.0
04 08:35 Calm 10.00 Fair CLR 57.2 50 77% 30.07 0.0
04 08:15 Calm 10.00 Fair CLR 55.4 50 82% 30.07 0.0
04 07:55 Calm 9.00 Fair CLR 51.8 48.2 88% 30.07 0.0
04 07:35 Calm 10.00 Fair CLR 48.2 46.4 94% 30.07 0.0
04 07:15 Calm 10.00 Fair CLR 46.4 46.4 100% 30.07 0.0
04 06:55 Calm 10.00 Fair CLR 44.6 44.6 100% 30.06 0.0
04 06:35 Calm 9.00 Fair CLR 42.8 42.8 100% 30.05 0.0
04 06:15 Calm 9.00 Fair CLR 42.8 42.8 100% 30.05 0.0
04 05:55 Calm 9.00 Fair CLR 42.8 42.8 100% 30.04 0.0
04 05:35 Calm 9.00 Fair CLR 42.8 42.8 100% 30.04 0.0
04 05:15 Calm 9.00 Fair CLR 42.8 42.8 100% 30.04 0.0
04 04:55 Calm 9.00 Fair CLR 42.8 42.8 100% 30.05 0.0
04 04:35 Calm 9.00 Fair CLR 42.8 42.8 100% 30.04 0.0
04 04:15 Calm 8.00 Fair CLR 42.8 42.8 100% 30.04 0.0
04 03:55 Calm 8.00 Fair CLR 42.8 42.8 100% 30.04 0.0
04 03:35 Calm 8.00 Fair CLR 42.8 42.8 100% 30.04 0.0
04 03:15 Calm 10.00 Fair CLR 44.6 44.6 100% 30.04 0.0
04 02:55 Calm 10.00 Fair CLR 42.8 42.8 100% 30.04 0.0
04 02:35 Calm 10.00 Fair CLR 42.8 42.8 100% 30.05 0.0
04 02:15 Calm 10.00 Fair CLR 42.8 42.8 100% 30.05 0.0
04 01:55 Calm 9.00 Fair CLR 44.6 42.8 93% 30.06 0.0
04 01:35 Calm 10.00 Fair CLR 44.6 44.6 100% 30.06 0.0
04 01:15 Calm 9.00 Fair CLR 44.6 44.6 100% 30.07 0.0
04 00:55 Calm 10.00 Fair CLR 44.6 44.6 100% 30.07 0.0
04 00:35 Calm 9.00 Fair CLR 46.4 46.4 100% 30.08 0.0
04 00:15 Calm 10.00 Fair CLR 46.4 46.4 100% 30.08 0.0
03 23:55 Calm 10.00 Fair CLR 46.4 46.4 100% 30.08 0.0
03 23:35 Calm 10.00 Fair CLR 46.4 46.4 100% 30.08 0.0
03 23:15 Calm 10.00 Fair CLR 48.2 46.4 94% 30.09 0.0
03 22:55 Calm 10.00 Fair CLR 48.2 48.2 100% 30.08 0.0
03 22:35 Calm 10.00 Fair CLR 48.2 48.2 100% 30.09 0.0
03 22:15 Calm 10.00 Fair CLR 48.2 48.2 100% 30.09 0.0
03 21:55 Calm 10.00 Fair CLR 50 48.2 94% 30.09 0.0
03 21:35 Calm 10.00 Fair CLR 50 48.2 94% 30.09 0.0
03 21:15 Calm 10.00 Fair CLR 51.8 50 94% 30.08 0.0
03 20:55 Calm 10.00 Fair CLR 51.8 50 94% 30.08 0.0
03 20:35 Calm 10.00 Fair CLR 53.6 50 88% 30.07 0.0
03 20:15 Calm 10.00 Fair CLR 53.6 50 88% 30.07 0.0
03 19:55 Calm 10.00 Fair CLR 55.4 51.8 88% 30.06 0.0
03 19:35 Calm 10.00 Fair CLR 59 51.8 77% 30.06 0.0
03 19:15 Calm 10.00 Fair CLR 62.6 50 64% 30.06 0.0
03 18:55 Calm 10.00 Fair CLR 66.2 46.4 49% 30.06 0.0
03 18:35 Calm 10.00 Fair CLR 69.8 42.8 38% 30.06 0.0
03 18:15 W 6 10.00 Fair CLR 69.8 39.2 33% 30.06 0.0
03 17:55 Calm 10.00 Fair CLR 71.6 41 33% 30.06 0.0
03 17:35 W 6 10.00 Fair CLR 71.6 41 33% 30.06 0.0
03 17:15 Calm 10.00 Fair CLR 71.6 39.2 31% 30.06 0.0
03 16:55 W 8 G 15 10.00 Fair CLR 71.6 41 33% 30.07 0.0
03 16:35 Vrbl 7 G 13 10.00 Fair CLR 71.6 39.2 31% 30.08 0.0
03 16:15 W 8 10.00 Fair CLR 71.6 39.2 31% 30.09 0.0
03 15:55 W 9 G 17 10.00 Fair CLR 71.6 39.2 31% 30.09 0.0
03 15:35 NW 10 G 21 10.00 Fair CLR 71.6 39.2 31% 30.1 0.0
03 15:15 W 10 G 16 10.00 Fair CLR 71.6 37.4 29% 30.11 0.0
03 14:55 Calm 10.00 Fair CLR 71.6 39.2 31% 30.12 0.0
03 14:35 Vrbl 3 G 14 10.00 Fair CLR 69.8 37.4 31% 30.14 0.0
03 13:55 Vrbl 5 G 12 10.00 Fair CLR 69.8 39.2 33% 30.15 0.0
03 13:35 W 9 G 15 10.00 Fair CLR 68 39.2 35% 30.17 0.0
03 13:15 Calm 10.00 Fair CLR 68 39.2 35% 30.18 0.0
03 12:55 Vrbl 7 G 14 10.00 Fair CLR 68 39.2 35% 30.18 0.0
03 12:35 Calm 10.00 Fair CLR 66.2 37.4 35% 30.19 0.0
03 12:15 Vrbl 7 10.00 Fair CLR 66.2 37.4 35% 30.2 0.0
03 11:55 NW 7 G 14 10.00 Fair CLR 66.2 39.2 37% 30.2 0.0
03 11:35 W 5 G 14 10.00 Fair CLR 64.4 35.6 34% 30.21 0.0
03 11:15 Vrbl 6 10.00 Fair CLR 64.4 37.4 37% 30.21 0.0
03 10:55 Vrbl 5 10.00 Fair CLR 64.4 37.4 37% 30.21 0.0
03 10:35 Calm 10.00 Fair CLR 62.6 37.4 39% 30.21 0.0
03 10:15 Calm 10.00 Fair CLR 62.6 39.2 42% 30.21 0.0
03 09:55 W 5 10.00 Fair CLR 59 42.8 55% 30.22 0.0
03 09:35 Calm 10.00 Fair CLR 59 42.8 55% 30.22 0.0
03 09:15 E 6 10.00 Fair CLR 57.2 44.6 63% 30.21 0.0
03 08:55 NE 5 10.00 Fair CLR 55.4 44.6 67% 30.21 0.0
03 08:35 E 3 10.00 Fair CLR 53.6 46.4 77% 30.21 0.0
03 08:15 Calm 6.00 Fair with Haze CLR 53.6 46.4 77% 30.21 0.0
03 07:55 Calm 9.00 Fair CLR 51.8 46.4 82% 30.2 0.0
03 07:35 Calm 9.00 Fair CLR 48.2 46.4 94% 30.2 0.0
03 07:15 Calm 9.00 Fair CLR 44.6 44.6 100% 30.2 0.0
03 06:55 Calm 9.00 Fair CLR 42.8 42.8 100% 30.19 0.0
03 06:35 Calm 9.00 Fair CLR 41 41 100% 30.18 0.0
03 06:15 Calm 9.00 Fair CLR 39.2 39.2 100% 30.18 0.0
03 05:55 Calm 8.00 Fair CLR 39.2 39.2 100% 30.17 0.0
03 05:35 Calm 9.00 Fair CLR 39.2 39.2 100% 30.16 0.0
03 05:15 Calm 9.00 Fair CLR 39.2 39.2 100% 30.16 0.0
03 04:55 Calm 9.00 Fair CLR 41 41 100% 30.16 0.0
03 04:35 Calm 9.00 Fair CLR 41 41 100% 30.15 0.0
03 04:15 Calm 9.00 Fair CLR 41 41 100% 30.15 0.0
03 03:55 Calm 9.00 Fair CLR 41 41 100% 30.15 0.0
03 03:35 Calm 9.00 Fair CLR 42.8 42.8 100% 30.15 0.0
03 03:15 Calm 10.00 Fair CLR 42.8 42.8 100% 30.15 0.0
03 02:55 Calm 10.00 Fair CLR 42.8 42.8 100% 30.14 0.0
03 02:35 Calm 10.00 Fair CLR 42.8 42.8 100% 30.14 0.0
03 02:15 Calm 10.00 Fair CLR 42.8 42.8 100% 30.13 0.0
03 01:55 Calm 10.00 Fair CLR 44.6 44.6 100% 30.13 0.0
03 01:35 Calm 10.00 Fair CLR 44.6 44.6 100% 30.13 0.0
03 01:15 Calm 10.00 Fair CLR 46.4 44.6 93% 30.13 0.0
03 00:55 Calm 10.00 Fair CLR 46.4 44.6 93% 30.13 0.0
03 00:35 Calm 10.00 Fair CLR 48.2 44.6 87% 30.12 0.0
03 00:15 Calm 10.00 Fair CLR 53.6 42.8 67% 30.12 0.0
02 23:55 Calm 10.00 Fair CLR 53.6 42.8 67% 30.12 0.0
02 23:35 N 3 10.00 Fair CLR 53.6 44.6 72% 30.11 0.0
02 23:15 Vrbl 5 10.00 Fair CLR 50 44.6 82% 49 30.1 0.0
02 22:55 Calm 10.00 Fair CLR 46.4 46.4 100% 30.09 0.0
02 22:35 Calm 10.00 Fair CLR 48.2 48.2 100% 30.08 0.0
02 22:15 Calm 10.00 Fair CLR 48.2 48.2 100% 30.08 0.0
02 21:55 Calm 10.00 A Few Clouds FEW080 FEW090 50 48.2 94% 30.08 0.0
02 21:35 Calm 10.00 Mostly Cloudy BKN085 50 48.2 94% 30.07 0.0
02 21:15 Calm 10.00 Mostly Cloudy BKN085 50 48.2 94% 30.06 0.0
02 20:55 Calm 10.00 A Few Clouds FEW080 FEW100 51.8 48.2 88% 30.05 0.0
02 20:35 Calm 10.00 Partly Cloudy SCT085 51.8 48.2 88% 30.05 0.0
02 20:15 Calm 10.00 Mostly Cloudy BKN085 53.6 48.2 82% 30.04 0.0
02 19:55 Calm 10.00 Partly Cloudy SCT085 55.4 48.2 77% 30.04 0.0
02 19:35 Calm 10.00 Fair CLR 57.2 46.4 67% 30.03 0.0
02 19:15 NW 5 10.00 Fair CLR 62.6 39.2 42% 30.02 0.0
02 18:55 NW 6 G 12 10.00 Fair CLR 64.4 39.2 40% 30.01 0.0
02 18:35 NW 8 G 15 10.00 Fair CLR 66.2 37.4 35% 30.01 0.0
02 18:15 NW 9 10.00 Fair CLR 68 37.4 33% 30.01 0.0
02 17:55 NW 9 G 16 10.00 Fair CLR 68 37.4 33% 30.01 0.0
02 17:35 NW 9 10.00 A Few Clouds FEW085 69.8 35.6 29% 30.01 0.0
02 17:15 N 9 G 16 10.00 A Few Clouds FEW080 69.8 37.4 31% 30.01 0.0
02 16:55 NW 8 G 22 10.00 Fair CLR 68 35.6 30% 30 0.0
02 16:35 NW 9 G 16 10.00 A Few Clouds FEW085 69.8 37.4 31% 30.01 0.0
02 16:15 NW 13 10.00 A Few Clouds FEW085 69.8 35.6 29% 30 0.0
02 15:55 NW 9 G 21 10.00 A Few Clouds FEW080 69.8 37.4 31% 30.01 0.0
02 15:35 NW 16 10.00 A Few Clouds FEW080 69.8 35.6 29% 30.01 0.0
02 15:15 N 9 G 21 10.00 Partly Cloudy SCT080 69.8 37.4 31% 30.02 0.0
02 14:55 NW 8 G 15 10.00 A Few Clouds FEW080 69.8 39.2 33% 30.02 0.0
02 14:35 NW 9 G 17 10.00 Partly Cloudy SCT075 69.8 39.2 33% 30.02 0.0
02 14:15 N 12 G 18 10.00 Partly Cloudy SCT075 66.2 35.6 32% 30.02 0.0
02 13:55 N 12 G 20 10.00 Fair CLR 69.8 39.2 33% 30.02 0.0
02 13:35 NE 10 G 18 10.00 Fair CLR 69.8 37.4 31% 30.03 0.0
02 13:15 NW 14 10.00 Fair CLR 68 37.4 33% 30.03 0.0
02 12:55 N 13 10.00 Fair CLR 68 35.6 30% 30.03 0.0
02 12:35 N 10 G 17 10.00 Fair CLR 68 37.4 33% 30.04 0.0
02 12:15 N 10 G 21 10.00 Fair CLR 66.2 33.8 30% 30.05 0.0
02 11:55 NE 13 G 21 10.00 Fair CLR 66.2 35.6 32% 30.05 0.0
02 11:35 N 12 G 21 10.00 Fair CLR 66.2 35.6 32% 30.05 0.0
02 11:15 NE 9 G 20 10.00 Fair CLR 64.4 37.4 37% 30.05 0.0
02 10:55 N 10 G 16 10.00 Fair CLR 64.4 37.4 37% 30.06 0.0
02 10:35 N 9 G 17 10.00 Fair CLR 62.6 41 45% 30.06 0.0
02 10:15 Vrbl 7 G 17 10.00 Fair CLR 60.8 39.2 45% 30.05 0.0
02 09:55 N 9 G 16 10.00 Fair CLR 59 39.2 48% 30.05 0.0
02 09:35 Vrbl 7 G 14 10.00 Fair CLR 59 39.2 48% 30.04 0.0
02 09:15 N 8 G 14 10.00 Fair CLR 59 41 51% 30.03 0.0
02 08:55 NE 6 10.00 Fair CLR 57.2 39.2 51% 30.03 0.0
02 08:35 Vrbl 7 10.00 Fair CLR 57.2 42.8 59% 30.02 0.0
02 08:15 N 5 G 12 10.00 Fair CLR 55.4 41 59% 30.02 0.0
02 07:55 N 7 10.00 Fair CLR 55.4 41 59% 30.02 0.0
02 07:35 NW 5 10.00 Fair CLR 53.6 41 63% 30.01 0.0
02 07:15 Vrbl 5 10.00 A Few Clouds FEW055 53.6 41 63% 30.01 0.0
02 06:55 NW 5 10.00 Mostly Cloudy BKN055 53.6 41 63% 30 0.0
02 06:35 N 3 10.00 Overcast OVC055 53.6 39.2 58% 30 0.0
02 06:15 Vrbl 3 10.00 Mostly Cloudy BKN050 53.6 39.2 58% 29.99 0.0
02 05:55 Calm 10.00 Mostly Cloudy BKN048 53.6 39.2 58% 29.98 0.0
02 05:35 Calm 10.00 Mostly Cloudy BKN047 53.6 39.2 58% 29.98 0.0
02 05:15 NE 3 10.00 Mostly Cloudy SCT045 BKN050 55.4 39.2 55% 29.97 0.0
02 04:55 Calm 10.00 Mostly Cloudy BKN050 BKN110 55.4 39.2 55% 29.98 0.0
02 04:35 N 5 10.00 Mostly Cloudy SCT055 BKN075 BKN110 55.4 39.2 55% 29.97 0.0
02 04:15 Vrbl 6 10.00 Overcast FEW055 BKN075 OVC110 55.4 37.4 51% 29.97 0.0
02 03:55 Vrbl 6 10.00 Overcast BKN090 OVC110 55.4 37.4 51% 29.98 0.0
02 03:35 Calm 10.00 Mostly Cloudy BKN090 BKN120 57.2 37.4 48% 29.98 0.0
02 03:15 NE 8 G 14 10.00 Mostly Cloudy SCT075 SCT100 BKN120 57.2 37.4 48% 29.98 0.0
02 02:55 Vrbl 6 10.00 Overcast BKN075 OVC100 57.2 37.4 48% 29.96 0.0
02 02:35 Vrbl 5 G 15 10.00 Overcast BKN075 OVC100 57.2 37.4 48% 29.97 0.0
02 02:15 N 7 10.00 Overcast BKN075 OVC100 57.2 37.4 48% 29.96 0.0
02 01:55 NE 8 10.00 Overcast SCT075 OVC100 57.2 39.2 51% 29.98 0.0
02 01:35 N 10 10.00 Overcast FEW080 OVC100 59 39.2 48% 29.99 0.0
02 01:15 Vrbl 7 10.00 Overcast FEW085 OVC110 59 41 51% 30 0.0
02 00:55 Vrbl 7 10.00 Overcast OVC100 59 41 51% 29.99 0.0
02 00:35 Vrbl 6 10.00 Overcast OVC110 59 44.6 59% 29.99 0.0
02 00:15 Vrbl 7 10.00 Mostly Cloudy SCT090 BKN120 59 48.2 68% 29.98 0.0
01 23:55 N 8 10.00 Partly Cloudy SCT110 59 50 72% 29.98 0.0
01 23:35 Vrbl 6 10.00 Fair CLR 59 50 72% 29.97 0.0
01 23:15 N 8 G 15 10.00 A Few Clouds FEW120 59 50 72% 29.96 0.0
01 22:55 N 5 10.00 Mostly Cloudy BKN120 59 51.8 77% 29.96 0.0
01 22:35 Vrbl 5 10.00 Partly Cloudy SCT120 59 51.8 77% 29.97 0.0
01 22:15 NW 3 10.00 Mostly Cloudy BKN120 57.2 53.6 88% 29.97 0.0
01 21:55 Calm 10.00 Partly Cloudy SCT120 57.2 55.4 94% 29.97 0.0
01 21:35 Calm 10.00 Mostly Cloudy FEW085 BKN110 57.2 57.2 100% 29.98 0.0
01 21:15 Calm 10.00 Overcast OVC110 57.2 55.4 94% 29.99 0.0
01 20:55 Calm 10.00 Mostly Cloudy BKN110 57.2 55.4 94% 29.98 0.0
Date Time (cdt) Wind (mph) Vis. (mi.) Weather Sky Cond. Air Dwpt Max. Min. Relative Humidity Wind Chill (°F) Heat Index (°F) altimeter (in) sea level (mb) 1 hr 3 hr 6 hr
6 hour
Temperature (ºF) Pressure Precipitation (in)